sensor_id;sensor_type;location;lat;lon;timestamp;pressure;altitude;pressure_sealevel;temperature;humidity
69318;BME280;56457;52.190;4.440;2023-07-29T00:00:43;100829.97;;;18.55;100.00
69318;BME280;56457;52.190;4.440;2023-07-29T00:01:43;100827.81;;;18.65;100.00
69318;BME280;56457;52.190;4.440;2023-07-29T00:02:44;100826.28;;;18.59;100.00
69318;BME280;56457;52.190;4.440;2023-07-29T00:03:44;100814.78;;;18.59;100.00
69318;BME280;56457;52.190;4.440;2023-07-29T00:04:45;100820.28;;;18.54;100.00
69318;BME280;56457;52.190;4.440;2023-07-29T00:05:45;100821.91;;;18.58;100.00
69318;BME280;56457;52.190;4.440;2023-07-29T00:06:45;100816.69;;;18.55;100.00
69318;BME280;56457;52.190;4.440;2023-07-29T00:07:46;100817.44;;;18.59;100.00
69318;BME280;56457;52.190;4.440;2023-07-29T00:08:46;100819.91;;;18.63;100.00
69318;BME280;56457;52.190;4.440;2023-07-29T00:09:46;100819.00;;;18.64;100.00
69318;BME280;56457;52.190;4.440;2023-07-29T00:10:46;100818.81;;;18.69;100.00
69318;BME280;56457;52.190;4.440;2023-07-29T00:11:47;100812.59;;;18.70;100.00
69318;BME280;56457;52.190;4.440;2023-07-29T00:12:47;100818.69;;;18.72;100.00
69318;BME280;56457;52.190;4.440;2023-07-29T00:13:48;100817.84;;;18.71;100.00
69318;BME280;56457;52.190;4.440;2023-07-29T00:14:50;100818.50;;;18.76;100.00
69318;BME280;56457;52.190;4.440;2023-07-29T00:15:53;100810.66;;;18.73;100.00
69318;BME280;56457;52.190;4.440;2023-07-29T00:16:53;100806.94;;;18.77;100.00
69318;BME280;56457;52.190;4.440;2023-07-29T00:17:53;100808.53;;;18.81;100.00
69318;BME280;56457;52.190;4.440;2023-07-29T00:18:54;100808.81;;;18.96;100.00
69318;BME280;56457;52.190;4.440;2023-07-29T00:19:54;100802.75;;;18.92;100.00
69318;BME280;56457;52.190;4.440;2023-07-29T00:20:54;100807.97;;;18.95;100.00
69318;BME280;56457;52.190;4.440;2023-07-29T00:21:55;100803.09;;;18.85;100.00
69318;BME280;56457;52.190;4.440;2023-07-29T00:22:56;100807.09;;;18.95;100.00
69318;BME280;56457;52.190;4.440;2023-07-29T00:23:58;100805.22;;;18.97;100.00
69318;BME280;56457;52.190;4.440;2023-07-29T00:24:58;100802.31;;;19.03;100.00
69318;BME280;56457;52.190;4.440;2023-07-29T00:25:59;100803.16;;;19.03;100.00
69318;BME280;56457;52.190;4.440;2023-07-29T00:26:59;100801.25;;;19.07;100.00
69318;BME280;56457;52.190;4.440;2023-07-29T00:28:00;100797.84;;;19.03;100.00
69318;BME280;56457;52.190;4.440;2023-07-29T00:29:00;100795.94;;;19.07;100.00
69318;BME280;56457;52.190;4.440;2023-07-29T00:30:00;100797.97;;;19.00;100.00
69318;BME280;56457;52.190;4.440;2023-07-29T00:31:01;100795.47;;;18.97;100.00
69318;BME280;56457;52.190;4.440;2023-07-29T00:32:02;100791.94;;;18.97;100.00
69318;BME280;56457;52.190;4.440;2023-07-29T00:33:03;100797.19;;;18.98;100.00
69318;BME280;56457;52.190;4.440;2023-07-29T00:34:03;100793.94;;;18.92;100.00
69318;BME280;56457;52.190;4.440;2023-07-29T00:35:03;100794.13;;;18.87;100.00
69318;BME280;56457;52.190;4.440;2023-07-29T00:36:04;100794.84;;;18.70;100.00
69318;BME280;56457;52.190;4.440;2023-07-29T00:37:04;100790.06;;;18.78;100.00
69318;BME280;56457;52.190;4.440;2023-07-29T00:38:06;100790.84;;;18.80;100.00
69318;BME280;56457;52.190;4.440;2023-07-29T00:39:06;100796.06;;;18.83;100.00
69318;BME280;56457;52.190;4.440;2023-07-29T00:40:12;100791.69;;;18.82;100.00
69318;BME280;56457;52.190;4.440;2023-07-29T00:41:13;100796.25;;;18.79;100.00
69318;BME280;56457;52.190;4.440;2023-07-29T00:42:14;100795.31;;;18.80;100.00
69318;BME280;56457;52.190;4.440;2023-07-29T00:43:14;100789.03;;;18.82;100.00
69318;BME280;56457;52.190;4.440;2023-07-29T00:44:14;100789.28;;;18.76;100.00
69318;BME280;56457;52.190;4.440;2023-07-29T00:45:14;100791.72;;;18.81;100.00
69318;BME280;56457;52.190;4.440;2023-07-29T00:46:15;100791.88;;;18.78;100.00
69318;BME280;56457;52.190;4.440;2023-07-29T00:47:16;100787.41;;;18.78;100.00
69318;BME280;56457;52.190;4.440;2023-07-29T00:48:17;100791.06;;;18.76;100.00
69318;BME280;56457;52.190;4.440;2023-07-29T00:49:19;100791.97;;;18.75;100.00
69318;BME280;56457;52.190;4.440;2023-07-29T00:50:19;100791.38;;;18.68;100.00
69318;BME280;56457;52.190;4.440;2023-07-29T00:51:20;100792.19;;;18.70;100.00
69318;BME280;56457;52.190;4.440;2023-07-29T00:52:20;100782.59;;;18.66;100.00
69318;BME280;56457;52.190;4.440;2023-07-29T00:53:21;100788.09;;;18.62;100.00
69318;BME280;56457;52.190;4.440;2023-07-29T00:54:22;100784.25;;;18.69;100.00
69318;BME280;56457;52.190;4.440;2023-07-29T00:55:22;100783.78;;;18.59;100.00
69318;BME280;56457;52.190;4.440;2023-07-29T00:56:23;100785.75;;;18.54;100.00
69318;BME280;56457;52.190;4.440;2023-07-29T00:57:23;100791.75;;;18.59;100.00
69318;BME280;56457;52.190;4.440;2023-07-29T00:58:25;100789.75;;;18.64;100.00
69318;BME280;56457;52.190;4.440;2023-07-29T00:59:25;100788.41;;;18.54;100.00
69318;BME280;56457;52.190;4.440;2023-07-29T01:00:28;100784.63;;;18.60;100.00
69318;BME280;56457;52.190;4.440;2023-07-29T01:01:28;100783.63;;;18.62;100.00
69318;BME280;56457;52.190;4.440;2023-07-29T01:02:29;100778.47;;;18.59;100.00
69318;BME280;56457;52.190;4.440;2023-07-29T01:03:32;100783.03;;;18.55;100.00
69318;BME280;56457;52.190;4.440;2023-07-29T01:04:33;100782.16;;;18.55;100.00
69318;BME280;56457;52.190;4.440;2023-07-29T01:05:36;100776.41;;;18.44;100.00
69318;BME280;56457;52.190;4.440;2023-07-29T01:08:14;100779.69;;;18.50;100.00
69318;BME280;56457;52.190;4.440;2023-07-29T01:11:44;100769.75;;;18.55;100.00
69318;BME280;56457;52.190;4.440;2023-07-29T01:14:59;100777.59;;;18.59;100.00
69318;BME280;56457;52.190;4.440;2023-07-29T01:15:29;100772.63;;;18.51;100.00
69318;BME280;56457;52.190;4.440;2023-07-29T01:16:39;100772.47;;;18.54;100.00
69318;BME280;56457;52.190;4.440;2023-07-29T01:17:46;100765.97;;;18.61;100.00
69318;BME280;56457;52.190;4.440;2023-07-29T01:18:47;100774.63;;;18.66;100.00
69318;BME280;56457;52.190;4.440;2023-07-29T01:21:04;100767.84;;;18.59;100.00
69318;BME280;56457;52.190;4.440;2023-07-29T01:22:05;100769.41;;;18.63;100.00
69318;BME280;56457;52.190;4.440;2023-07-29T01:23:07;100765.97;;;18.61;100.00
69318;BME280;56457;52.190;4.440;2023-07-29T01:24:08;100769.97;;;18.51;100.00
69318;BME280;56457;52.190;4.440;2023-07-29T01:25:08;100772.88;;;18.45;100.00
69318;BME280;56457;52.190;4.440;2023-07-29T01:26:08;100773.84;;;18.42;100.00
69318;BME280;56457;52.190;4.440;2023-07-29T01:27:09;100769.78;;;18.34;100.00
69318;BME280;56457;52.190;4.440;2023-07-29T01:28:09;100768.06;;;18.33;100.00
69318;BME280;56457;52.190;4.440;2023-07-29T01:29:09;100775.03;;;18.35;100.00
69318;BME280;56457;52.190;4.440;2023-07-29T01:30:10;100776.69;;;18.38;100.00
69318;BME280;56457;52.190;4.440;2023-07-29T01:31:16;100767.66;;;18.42;100.00
69318;BME280;56457;52.190;4.440;2023-07-29T01:32:20;100771.78;;;18.49;100.00
69318;BME280;56457;52.190;4.440;2023-07-29T01:33:27;100774.53;;;18.47;100.00
69318;BME280;56457;52.190;4.440;2023-07-29T01:34:32;100774.44;;;18.49;100.00
69318;BME280;56457;52.190;4.440;2023-07-29T01:36:42;100772.22;;;18.60;100.00
69318;BME280;56457;52.190;4.440;2023-07-29T01:37:43;100766.72;;;18.65;100.00
69318;BME280;56457;52.190;4.440;2023-07-29T01:38:45;100762.16;;;18.68;100.00
69318;BME280;56457;52.190;4.440;2023-07-29T01:39:49;100757.06;;;18.62;100.00
69318;BME280;56457;52.190;4.440;2023-07-29T01:40:50;100760.53;;;18.64;100.00
69318;BME280;56457;52.190;4.440;2023-07-29T01:41:51;100758.78;;;18.63;100.00
69318;BME280;56457;52.190;4.440;2023-07-29T01:42:51;100764.56;;;18.52;100.00
69318;BME280;56457;52.190;4.440;2023-07-29T01:43:52;100765.00;;;18.64;100.00
69318;BME280;56457;52.190;4.440;2023-07-29T01:44:53;100759.38;;;18.71;100.00
69318;BME280;56457;52.190;4.440;2023-07-29T01:45:53;100754.19;;;18.68;100.00
69318;BME280;56457;52.190;4.440;2023-07-29T01:46:55;100754.13;;;18.70;100.00
69318;BME280;56457;52.190;4.440;2023-07-29T01:47:55;100749.34;;;18.56;100.00
69318;BME280;56457;52.190;4.440;2023-07-29T01:48:56;100755.00;;;18.48;100.00
69318;BME280;56457;52.190;4.440;2023-07-29T01:49:56;100758.84;;;18.41;100.00
69318;BME280;56457;52.190;4.440;2023-07-29T01:50:56;100753.69;;;18.37;100.00
69318;BME280;56457;52.190;4.440;2023-07-29T01:51:57;100756.53;;;18.32;100.00
69318;BME280;56457;52.190;4.440;2023-07-29T01:52:57;100760.13;;;18.31;100.00
69318;BME280;56457;52.190;4.440;2023-07-29T01:53:57;100758.94;;;18.38;100.00
69318;BME280;56457;52.190;4.440;2023-07-29T01:54:59;100758.47;;;18.28;100.00
69318;BME280;56457;52.190;4.440;2023-07-29T01:56:00;100751.69;;;18.21;100.00
69318;BME280;56457;52.190;4.440;2023-07-29T01:57:00;100759.66;;;18.21;100.00
69318;BME280;56457;52.190;4.440;2023-07-29T01:58:00;100760.69;;;18.17;100.00
69318;BME280;56457;52.190;4.440;2023-07-29T01:59:00;100761.56;;;18.18;100.00
69318;BME280;56457;52.190;4.440;2023-07-29T02:00:01;100769.47;;;18.19;100.00
69318;BME280;56457;52.190;4.440;2023-07-29T02:01:02;100765.91;;;18.20;100.00
69318;BME280;56457;52.190;4.440;2023-07-29T02:02:02;100759.84;;;18.17;100.00
69318;BME280;56457;52.190;4.440;2023-07-29T02:03:02;100761.94;;;18.30;100.00
69318;BME280;56457;52.190;4.440;2023-07-29T02:04:03;100753.09;;;18.30;100.00
69318;BME280;56457;52.190;4.440;2023-07-29T02:05:03;100751.03;;;18.37;100.00
69318;BME280;56457;52.190;4.440;2023-07-29T02:06:04;100760.88;;;18.35;100.00
69318;BME280;56457;52.190;4.440;2023-07-29T02:07:04;100754.53;;;18.39;100.00
69318;BME280;56457;52.190;4.440;2023-07-29T02:08:04;100760.88;;;18.35;100.00
69318;BME280;56457;52.190;4.440;2023-07-29T02:09:05;100759.94;;;18.36;100.00
69318;BME280;56457;52.190;4.440;2023-07-29T02:10:05;100754.63;;;18.36;100.00
69318;BME280;56457;52.190;4.440;2023-07-29T02:11:06;100751.19;;;18.34;100.00
69318;BME280;56457;52.190;4.440;2023-07-29T02:12:06;100759.28;;;18.30;100.00
69318;BME280;56457;52.190;4.440;2023-07-29T02:13:08;100753.88;;;18.32;100.00
69318;BME280;56457;52.190;4.440;2023-07-29T02:14:08;100756.44;;;18.35;100.00
69318;BME280;56457;52.190;4.440;2023-07-29T02:15:09;100754.78;;;18.33;100.00
69318;BME280;56457;52.190;4.440;2023-07-29T02:16:09;100752.16;;;18.31;100.00
69318;BME280;56457;52.190;4.440;2023-07-29T02:17:10;100760.09;;;18.33;100.00
69318;BME280;56457;52.190;4.440;2023-07-29T02:18:10;100756.28;;;18.38;100.00
69318;BME280;56457;52.190;4.440;2023-07-29T02:19:11;100752.31;;;18.28;100.00
69318;BME280;56457;52.190;4.440;2023-07-29T02:20:11;100759.41;;;18.27;100.00
69318;BME280;56457;52.190;4.440;2023-07-29T02:21:11;100753.16;;;18.28;100.00
69318;BME280;56457;52.190;4.440;2023-07-29T02:22:15;100760.28;;;18.28;100.00
69318;BME280;56457;52.190;4.440;2023-07-29T02:23:16;100753.03;;;18.32;100.00
69318;BME280;56457;52.190;4.440;2023-07-29T02:24:17;100749.50;;;18.31;100.00
69318;BME280;56457;52.190;4.440;2023-07-29T02:25:17;100751.22;;;18.32;100.00
69318;BME280;56457;52.190;4.440;2023-07-29T02:26:18;100747.09;;;18.25;100.00
69318;BME280;56457;52.190;4.440;2023-07-29T02:27:18;100749.50;;;18.31;100.00
69318;BME280;56457;52.190;4.440;2023-07-29T02:28:18;100739.50;;;18.38;100.00
69318;BME280;56457;52.190;4.440;2023-07-29T02:29:19;100739.63;;;18.35;100.00
69318;BME280;56457;52.190;4.440;2023-07-29T02:30:20;100736.97;;;18.35;100.00
69318;BME280;56457;52.190;4.440;2023-07-29T02:31:21;100745.88;;;18.34;100.00
69318;BME280;56457;52.190;4.440;2023-07-29T02:32:21;100744.16;;;18.33;100.00
69318;BME280;56457;52.190;4.440;2023-07-29T02:33:22;100751.22;;;18.32;100.00
69318;BME280;56457;52.190;4.440;2023-07-29T02:34:22;100743.53;;;18.26;100.00
69318;BME280;56457;52.190;4.440;2023-07-29T02:35:22;100746.91;;;18.29;100.00
69318;BME280;56457;52.190;4.440;2023-07-29T02:36:23;100746.84;;;18.31;100.00
69318;BME280;56457;52.190;4.440;2023-07-29T02:37:23;100740.81;;;18.27;100.00
69318;BME280;56457;52.190;4.440;2023-07-29T02:38:23;100743.47;;;18.27;100.00
69318;BME280;56457;52.190;4.440;2023-07-29T02:39:23;100744.19;;;18.31;100.00
69318;BME280;56457;52.190;4.440;2023-07-29T02:40:24;100738.78;;;18.34;100.00
69318;BME280;56457;52.190;4.440;2023-07-29T02:41:26;100743.41;;;18.29;100.00
69318;BME280;56457;52.190;4.440;2023-07-29T02:42:27;100740.81;;;18.27;100.00
69318;BME280;56457;52.190;4.440;2023-07-29T02:43:27;100737.34;;;18.25;100.00
69318;BME280;56457;52.190;4.440;2023-07-29T02:44:27;100739.09;;;18.26;100.00
69318;BME280;56457;52.190;4.440;2023-07-29T02:45:27;100740.00;;;18.25;100.00
69318;BME280;56457;52.190;4.440;2023-07-29T02:46:28;100731.06;;;18.28;100.00
69318;BME280;56457;52.190;4.440;2023-07-29T02:47:29;100726.72;;;18.25;100.00
69318;BME280;56457;52.190;4.440;2023-07-29T02:48:29;100728.22;;;18.33;100.00
69318;BME280;56457;52.190;4.440;2023-07-29T02:49:30;100723.03;;;18.29;100.00
69318;BME280;56457;52.190;4.440;2023-07-29T02:50:30;100728.47;;;18.26;100.00
69318;BME280;56457;52.190;4.440;2023-07-29T02:51:30;100727.63;;;18.26;100.00
69318;BME280;56457;52.190;4.440;2023-07-29T02:52:31;100726.00;;;18.22;100.00
69318;BME280;56457;52.190;4.440;2023-07-29T02:53:31;100727.66;;;18.24;100.00
69318;BME280;56457;52.190;4.440;2023-07-29T02:54:31;100726.88;;;18.22;100.00
69318;BME280;56457;52.190;4.440;2023-07-29T02:55:32;100724.03;;;18.27;100.00
69318;BME280;56457;52.190;4.440;2023-07-29T02:56:32;100723.88;;;18.30;100.00
69318;BME280;56457;52.190;4.440;2023-07-29T02:57:33;100723.81;;;18.32;100.00
69318;BME280;56457;52.190;4.440;2023-07-29T02:58:33;100722.16;;;18.29;100.00
69318;BME280;56457;52.190;4.440;2023-07-29T02:59:33;100724.66;;;18.32;100.00
69318;BME280;56457;52.190;4.440;2023-07-29T03:00:33;100720.09;;;18.36;100.00
69318;BME280;56457;52.190;4.440;2023-07-29T03:01:34;100725.25;;;18.40;100.00
69318;BME280;56457;52.190;4.440;2023-07-29T03:02:34;100731.41;;;18.41;100.00
69318;BME280;56457;52.190;4.440;2023-07-29T03:03:35;100723.03;;;18.50;100.00
69318;BME280;56457;52.190;4.440;2023-07-29T03:04:35;100717.53;;;18.54;100.00
69318;BME280;56457;52.190;4.440;2023-07-29T03:05:35;100718.13;;;18.61;100.00
69318;BME280;56457;52.190;4.440;2023-07-29T03:06:36;100720.13;;;18.56;100.00
69318;BME280;56457;52.190;4.440;2023-07-29T03:07:36;100722.00;;;18.54;100.00
69318;BME280;56457;52.190;4.440;2023-07-29T03:08:36;100726.09;;;18.61;100.00
69318;BME280;56457;52.190;4.440;2023-07-29T03:09:37;100730.38;;;18.65;100.00
69318;BME280;56457;52.190;4.440;2023-07-29T03:10:37;100719.63;;;18.68;100.00
69318;BME280;56457;52.190;4.440;2023-07-29T03:11:37;100716.22;;;18.65;100.00
69318;BME280;56457;52.190;4.440;2023-07-29T03:12:38;100719.25;;;18.55;100.00
69318;BME280;56457;52.190;4.440;2023-07-29T03:13:38;100724.84;;;18.49;100.00
69318;BME280;56457;52.190;4.440;2023-07-29T03:14:38;100718.06;;;18.42;100.00
69318;BME280;56457;52.190;4.440;2023-07-29T03:15:39;100724.41;;;18.38;100.00
69318;BME280;56457;52.190;4.440;2023-07-29T03:16:39;100726.22;;;18.38;100.00
69318;BME280;56457;52.190;4.440;2023-07-29T03:17:39;100727.97;;;18.39;100.00
69318;BME280;56457;52.190;4.440;2023-07-29T03:18:40;100727.03;;;18.40;100.00
69318;BME280;56457;52.190;4.440;2023-07-29T03:19:40;100726.88;;;18.43;100.00
69318;BME280;56457;52.190;4.440;2023-07-29T03:20:40;100727.38;;;18.52;100.00
69318;BME280;56457;52.190;4.440;2023-07-29T03:21:41;100734.22;;;18.58;100.00
69318;BME280;56457;52.190;4.440;2023-07-29T03:22:41;100738.78;;;18.54;100.00
69318;BME280;56457;52.190;4.440;2023-07-29T03:23:41;100737.81;;;18.57;100.00
69318;BME280;56457;52.190;4.440;2023-07-29T03:24:42;100738.97;;;18.50;100.00
69318;BME280;56457;52.190;4.440;2023-07-29T03:25:42;100741.59;;;18.51;100.00
69318;BME280;56457;52.190;4.440;2023-07-29T03:26:42;100740.59;;;18.54;100.00
69318;BME280;56457;52.190;4.440;2023-07-29T03:27:43;100740.72;;;18.51;100.00
69318;BME280;56457;52.190;4.440;2023-07-29T03:28:43;100738.13;;;18.49;100.00
69318;BME280;56457;52.190;4.440;2023-07-29T03:29:43;100736.94;;;18.56;100.00
69318;BME280;56457;52.190;4.440;2023-07-29T03:30:44;100736.22;;;18.53;100.00
69318;BME280;56457;52.190;4.440;2023-07-29T03:31:44;100741.44;;;18.54;100.00
69318;BME280;56457;52.190;4.440;2023-07-29T03:32:44;100742.13;;;18.60;100.00
69318;BME280;56457;52.190;4.440;2023-07-29T03:33:45;100745.13;;;18.52;100.00
69318;BME280;56457;52.190;4.440;2023-07-29T03:34:45;100741.19;;;18.61;100.00
69318;BME280;56457;52.190;4.440;2023-07-29T03:35:46;100744.72;;;18.61;100.00
69318;BME280;56457;52.190;4.440;2023-07-29T03:36:46;100738.78;;;18.54;100.00
69318;BME280;56457;52.190;4.440;2023-07-29T03:37:47;100731.75;;;18.53;100.00
69318;BME280;56457;52.190;4.440;2023-07-29T03:38:48;100745.78;;;18.57;100.00
69318;BME280;56457;52.190;4.440;2023-07-29T03:39:48;100740.72;;;18.51;100.00
69318;BME280;56457;52.190;4.440;2023-07-29T03:40:48;100734.22;;;18.58;100.00
69318;BME280;56457;52.190;4.440;2023-07-29T03:41:49;100725.13;;;18.64;100.00
69318;BME280;56457;52.190;4.440;2023-07-29T03:42:49;100732.63;;;18.54;100.00
69318;BME280;56457;52.190;4.440;2023-07-29T03:43:49;100730.72;;;18.58;100.00
69318;BME280;56457;52.190;4.440;2023-07-29T03:44:49;100725.44;;;18.56;100.00
69318;BME280;56457;52.190;4.440;2023-07-29T03:45:50;100745.47;;;18.65;100.00
69318;BME280;56457;52.190;4.440;2023-07-29T03:46:50;100748.03;;;18.66;100.00
69318;BME280;56457;52.190;4.440;2023-07-29T03:47:50;100754.19;;;18.68;100.00
69318;BME280;56457;52.190;4.440;2023-07-29T03:48:51;100756.91;;;18.67;100.00
69318;BME280;56457;52.190;4.440;2023-07-29T03:49:51;100747.66;;;18.75;100.00
69318;BME280;56457;52.190;4.440;2023-07-29T03:50:51;100751.53;;;18.68;100.00
69318;BME280;56457;52.190;4.440;2023-07-29T03:51:52;100751.13;;;18.77;100.00
69318;BME280;56457;52.190;4.440;2023-07-29T03:52:52;100750.06;;;18.81;100.00
69318;BME280;56457;52.190;4.440;2023-07-29T03:53:52;100748.34;;;18.80;100.00
69318;BME280;56457;52.190;4.440;2023-07-29T03:54:52;100741.97;;;18.85;100.00
69318;BME280;56457;52.190;4.440;2023-07-29T03:55:53;100736.50;;;18.88;100.00
69318;BME280;56457;52.190;4.440;2023-07-29T03:56:53;100734.84;;;18.85;100.00
69318;BME280;56457;52.190;4.440;2023-07-29T03:57:54;100736.13;;;18.76;100.00
69318;BME280;56457;52.190;4.440;2023-07-29T03:59:00;100737.78;;;18.79;100.00
69318;BME280;56457;52.190;4.440;2023-07-29T04:00:02;100739.50;;;18.80;100.00
69318;BME280;56457;52.190;4.440;2023-07-29T04:01:02;100737.25;;;18.91;100.00
69318;BME280;56457;52.190;4.440;2023-07-29T04:02:02;100732.72;;;18.93;100.00
69318;BME280;56457;52.190;4.440;2023-07-29T04:03:03;100734.34;;;18.77;100.00
69318;BME280;56457;52.190;4.440;2023-07-29T04:04:03;100737.09;;;18.74;100.00
69318;BME280;56457;52.190;4.440;2023-07-29T04:05:04;100739.69;;;18.75;100.00
69318;BME280;56457;52.190;4.440;2023-07-29T04:06:04;100732.66;;;18.74;100.00
69318;BME280;56457;52.190;4.440;2023-07-29T04:07:05;100736.91;;;18.78;100.00
69318;BME280;56457;52.190;4.440;2023-07-29T04:08:05;100738.25;;;18.89;100.00
69318;BME280;56457;52.190;4.440;2023-07-29T04:09:05;100737.84;;;18.98;100.00
69318;BME280;56457;52.190;4.440;2023-07-29T04:10:06;100744.75;;;19.02;100.00
69318;BME280;56457;52.190;4.440;2023-07-29T04:11:07;100745.47;;;19.05;100.00
69318;BME280;56457;52.190;4.440;2023-07-29T04:12:07;100745.81;;;18.98;100.00
69318;BME280;56457;52.190;4.440;2023-07-29T04:13:07;100752.19;;;18.94;100.00
69318;BME280;56457;52.190;4.440;2023-07-29T04:14:08;100733.91;;;18.86;100.00
69318;BME280;56457;52.190;4.440;2023-07-29T04:15:08;100735.72;;;18.86;100.00
69318;BME280;56457;52.190;4.440;2023-07-29T04:16:08;100732.78;;;18.92;100.00
69318;BME280;56457;52.190;4.440;2023-07-29T04:17:09;100735.25;;;18.96;100.00
69318;BME280;56457;52.190;4.440;2023-07-29T04:18:09;100728.72;;;19.03;100.00
69318;BME280;56457;52.190;4.440;2023-07-29T04:19:09;100728.56;;;19.06;100.00
69318;BME280;56457;52.190;4.440;2023-07-29T04:20:10;100728.81;;;19.02;100.00
69318;BME280;56457;52.190;4.440;2023-07-29T04:21:10;100741.34;;;18.98;100.00
69318;BME280;56457;52.190;4.440;2023-07-29T04:22:11;100732.41;;;19.01;100.00
69318;BME280;56457;52.190;4.440;2023-07-29T04:23:11;100733.09;;;19.04;100.00
69318;BME280;56457;52.190;4.440;2023-07-29T04:24:11;100737.06;;;18.96;100.00
69318;BME280;56457;52.190;4.440;2023-07-29T04:25:12;100739.31;;;18.85;100.00
69318;BME280;56457;52.190;4.440;2023-07-29T04:26:13;100735.00;;;18.82;100.00
69318;BME280;56457;52.190;4.440;2023-07-29T04:27:13;100738.63;;;18.79;100.00
69318;BME280;56457;52.190;4.440;2023-07-29T04:28:14;100740.44;;;18.79;100.00
69318;BME280;56457;52.190;4.440;2023-07-29T04:29:14;100743.94;;;18.79;100.00
69318;BME280;56457;52.190;4.440;2023-07-29T04:30:14;100745.69;;;18.80;100.00
69318;BME280;56457;52.190;4.440;2023-07-29T04:31:15;100749.16;;;18.82;100.00
69318;BME280;56457;52.190;4.440;2023-07-29T04:32:15;100751.59;;;18.87;100.00
69318;BME280;56457;52.190;4.440;2023-07-29T04:33:15;100742.97;;;18.82;100.00
69318;BME280;56457;52.190;4.440;2023-07-29T04:34:16;100750.06;;;18.81;100.00
69318;BME280;56457;52.190;4.440;2023-07-29T04:35:16;100751.66;;;18.86;100.00
69318;BME280;56457;52.190;4.440;2023-07-29T04:36:17;100752.41;;;18.89;100.00
69318;BME280;56457;52.190;4.440;2023-07-29T04:37:17;100755.31;;;18.83;100.00
69318;BME280;56457;52.190;4.440;2023-07-29T04:38:17;100766.00;;;18.81;100.00
69318;BME280;56457;52.190;4.440;2023-07-29T04:39:18;100761.31;;;18.88;100.00
69318;BME280;56457;52.190;4.440;2023-07-29T04:40:18;100758.66;;;18.88;100.00
69318;BME280;56457;52.190;4.440;2023-07-29T04:41:18;100762.28;;;18.86;100.00
69318;BME280;56457;52.190;4.440;2023-07-29T04:42:19;100755.06;;;18.89;100.00
69318;BME280;56457;52.190;4.440;2023-07-29T04:43:19;100754.84;;;18.94;100.00
69318;BME280;56457;52.190;4.440;2023-07-29T04:44:19;100753.44;;;19.05;100.00
69318;BME280;56457;52.190;4.440;2023-07-29T04:45:20;100760.97;;;18.96;100.00
69318;BME280;56457;52.190;4.440;2023-07-29T04:46:20;100756.59;;;18.95;100.00
69318;BME280;56457;52.190;4.440;2023-07-29T04:47:20;100741.56;;;18.94;100.00
69318;BME280;56457;52.190;4.440;2023-07-29T04:48:21;100746.81;;;18.95;100.00
69318;BME280;56457;52.190;4.440;2023-07-29T04:49:21;100745.00;;;19.16;100.00
69318;BME280;56457;52.190;4.440;2023-07-29T04:50:22;100741.28;;;19.20;100.00
69318;BME280;56457;52.190;4.440;2023-07-29T04:51:22;100739.13;;;19.28;100.00
69318;BME280;56457;52.190;4.440;2023-07-29T04:52:23;100743.78;;;19.23;100.00
69318;BME280;56457;52.190;4.440;2023-07-29T04:53:23;100745.84;;;19.17;100.00
69318;BME280;56457;52.190;4.440;2023-07-29T04:54:23;100753.03;;;19.15;100.00
69318;BME280;56457;52.190;4.440;2023-07-29T04:55:24;100746.22;;;19.09;100.00
69318;BME280;56457;52.190;4.440;2023-07-29T04:56:24;100748.78;;;19.10;100.00
69318;BME280;56457;52.190;4.440;2023-07-29T04:57:25;100746.91;;;19.13;100.00
69318;BME280;56457;52.190;4.440;2023-07-29T04:58:25;100745.06;;;19.15;100.00
69318;BME280;56457;52.190;4.440;2023-07-29T04:59:26;100746.72;;;19.17;100.00
69318;BME280;56457;52.190;4.440;2023-07-29T05:00:27;100735.28;;;19.15;100.00
69318;BME280;56457;52.190;4.440;2023-07-29T05:01:27;100741.59;;;19.13;100.00
69318;BME280;56457;52.190;4.440;2023-07-29T05:02:27;100754.69;;;19.17;100.00
69318;BME280;56457;52.190;4.440;2023-07-29T05:03:28;100736.66;;;19.24;100.00
69318;BME280;56457;52.190;4.440;2023-07-29T05:04:28;100745.47;;;19.26;100.00
69318;BME280;56457;52.190;4.440;2023-07-29T05:05:28;100746.31;;;19.26;100.00
69318;BME280;56457;52.190;4.440;2023-07-29T05:06:29;100739.13;;;19.28;100.00
69318;BME280;56457;52.190;4.440;2023-07-29T05:07:29;100743.50;;;19.29;100.00
69318;BME280;56457;52.190;4.440;2023-07-29T05:08:29;100750.53;;;19.30;100.00
69318;BME280;56457;52.190;4.440;2023-07-29T05:09:30;100746.31;;;19.26;100.00
69318;BME280;56457;52.190;4.440;2023-07-29T05:10:30;100746.63;;;19.19;100.00
69318;BME280;56457;52.190;4.440;2023-07-29T05:11:30;100747.72;;;19.15;100.00
69318;BME280;56457;52.190;4.440;2023-07-29T05:12:30;100749.09;;;19.23;100.00
69318;BME280;56457;52.190;4.440;2023-07-29T05:13:32;100738.34;;;19.26;100.00
69318;BME280;56457;52.190;4.440;2023-07-29T05:14:33;100734.94;;;19.23;100.00
69318;BME280;56457;52.190;4.440;2023-07-29T05:15:33;100739.41;;;19.22;100.00
69318;BME280;56457;52.190;4.440;2023-07-29T05:16:33;100742.91;;;19.23;100.00
69318;BME280;56457;52.190;4.440;2023-07-29T05:17:33;100745.47;;;19.26;100.00
69318;BME280;56457;52.190;4.440;2023-07-29T05:18:34;100737.47;;;19.26;100.00
69318;BME280;56457;52.190;4.440;2023-07-29T05:19:34;100750.81;;;19.24;100.00
69318;BME280;56457;52.190;4.440;2023-07-29T05:20:34;100741.78;;;19.28;100.00
69318;BME280;56457;52.190;4.440;2023-07-29T05:21:35;100734.75;;;19.27;100.00